createdAt,value
2022-08-21T00:00:02.494Z,55.58
2022-08-21T00:05:15.171Z,55.11
2022-08-21T00:10:18.964Z,62.08
2022-08-21T00:15:27.532Z,57.78
2022-08-21T00:20:30.242Z,60.48
2022-08-21T00:25:33.805Z,67.06
2022-08-21T00:30:36.903Z,59.07
2022-08-21T00:35:42.725Z,59.14
2022-08-21T00:40:52.438Z,60.76
2022-08-21T00:45:56.307Z,64.13
2022-08-21T00:51:13.371Z,59.98
2022-08-21T00:56:15.911Z,61.37
2022-08-21T01:01:19.913Z,63.96
2022-08-21T01:06:22.598Z,69.31
2022-08-21T01:11:25.561Z,69.52
2022-08-21T01:16:28.219Z,64.66
2022-08-21T01:21:30.715Z,65.17
2022-08-21T01:26:38.084Z,56.40
2022-08-21T01:31:40.808Z,59.04
2022-08-21T01:36:45.288Z,61.87
2022-08-21T01:41:47.887Z,63.63
2022-08-21T01:46:51.146Z,69.04
2022-08-21T01:51:53.652Z,63.16
2022-08-21T01:56:56.299Z,63.58
2022-08-21T02:01:58.933Z,67.07
2022-08-21T02:07:02.571Z,65.10
2022-08-21T02:12:05.305Z,58.37
2022-08-21T02:17:09.580Z,61.28
2022-08-21T02:22:12.945Z,63.56
2022-08-21T02:27:15.439Z,65.19
2022-08-21T02:32:18.176Z,63.41
2022-08-21T02:37:20.842Z,64.95
2022-08-21T02:42:23.569Z,69.04
2022-08-21T02:47:26.159Z,73.55
2022-08-21T02:52:28.796Z,62.44
2022-08-21T02:57:33.420Z,66.18
2022-08-21T03:02:35.891Z,72.75
2022-08-21T03:07:40.153Z,75.90
2022-08-21T03:12:43.120Z,63.24
2022-08-21T03:17:47.058Z,67.06
2022-08-21T03:22:52.809Z,72.25
2022-08-21T03:27:58.819Z,68.60
2022-08-21T03:33:02.507Z,69.56
2022-08-21T03:38:04.998Z,69.56
2022-08-21T03:43:10.188Z,61.34
2022-08-21T03:48:13.405Z,68.80
2022-08-21T03:53:18.031Z,66.58
2022-08-21T03:58:23.193Z,62.91
2022-08-21T04:03:27.112Z,66.30
2022-08-21T04:08:29.625Z,70.03
2022-08-21T04:13:32.324Z,72.83
2022-08-21T04:18:34.930Z,72.23
2022-08-21T04:23:38.265Z,69.92
2022-08-21T04:28:40.973Z,67.42
2022-08-21T04:33:43.479Z,68.66
2022-08-21T04:38:45.975Z,62.62
2022-08-21T04:43:48.433Z,67.89
2022-08-21T04:48:51.096Z,66.50
2022-08-21T04:54:12.185Z,64.45
2022-08-21T04:59:22.153Z,64.81
2022-08-21T05:04:29.413Z,62.93
2022-08-21T05:09:32.147Z,67.30
2022-08-21T05:14:35.248Z,63.92
2022-08-21T05:19:38.120Z,65.89
2022-08-21T05:24:40.768Z,63.47
2022-08-21T05:29:44.022Z,67.23
2022-08-21T05:34:46.618Z,59.85
2022-08-21T05:40:09.624Z,61.36
2022-08-21T05:45:12.021Z,63.86
2022-08-21T05:50:14.612Z,60.23
2022-08-21T05:55:17.060Z,61.52
2022-08-21T06:00:19.802Z,65.87
2022-08-21T06:05:25.217Z,64.47
2022-08-21T06:10:40.603Z,59.71
2022-08-21T06:15:43.243Z,66.53
2022-08-21T06:20:46.093Z,62.19
2022-08-21T06:25:48.621Z,58.91
2022-08-21T06:30:51.264Z,60.89
2022-08-21T06:35:53.852Z,55.29
2022-08-21T06:40:56.472Z,56.86
2022-08-21T06:46:00.374Z,61.61
2022-08-21T06:51:02.983Z,55.27
2022-08-21T06:56:05.868Z,54.04
2022-08-21T07:01:08.490Z,53.98
2022-08-21T07:06:12.063Z,52.91
2022-08-21T07:11:23.430Z,56.21
2022-08-21T07:16:25.951Z,52.14
2022-08-21T07:21:28.591Z,52.10
2022-08-21T07:26:31.171Z,54.91
2022-08-21T07:31:33.875Z,52.08
2022-08-21T07:36:36.313Z,56.04
2022-08-21T07:41:38.860Z,53.91
2022-08-21T07:46:41.647Z,55.37
2022-08-21T07:51:44.429Z,53.90
2022-08-21T07:56:46.939Z,53.20
2022-08-21T08:01:49.418Z,52.10
2022-08-21T08:06:52.440Z,49.54
2022-08-21T08:11:54.896Z,51.52
2022-08-21T08:16:57.617Z,45.49
2022-08-21T08:22:00.051Z,48.76
2022-08-21T08:27:02.661Z,45.52
2022-08-21T08:32:08.262Z,42.65
2022-08-21T08:37:12.064Z,47.53
2022-08-21T08:42:32.024Z,42.07
2022-08-21T08:47:41.139Z,44.89
2022-08-21T08:52:54.819Z,44.04
2022-08-21T08:57:57.895Z,43.47
2022-08-21T09:03:03.409Z,42.11
2022-08-21T09:08:19.061Z,40.46
2022-08-21T09:13:50.776Z,44.56
2022-08-21T09:19:05.310Z,42.40
2022-08-21T09:24:41.592Z,36.73
2022-08-21T09:29:48.740Z,32.98
2022-08-21T09:35:01.777Z,32.09
2022-08-21T09:40:32.594Z,37.97
2022-08-21T09:45:39.823Z,31.86
2022-08-21T09:50:44.970Z,32.12
2022-08-21T09:56:21.667Z,36.65
2022-08-21T10:01:27.673Z,36.13
2022-08-21T10:06:30.887Z,36.96
2022-08-21T10:11:35.347Z,36.64
2022-08-21T10:16:37.767Z,35.90
2022-08-21T10:22:01.425Z,35.45
2022-08-21T10:27:12.442Z,34.77
2022-08-21T10:32:40.252Z,35.51
2022-08-21T10:37:46.696Z,33.26
2022-08-21T10:43:23.289Z,29.47
2022-08-21T10:48:43.536Z,32.63
2022-08-21T10:54:04.897Z,30.42
2022-08-21T10:59:48.688Z,27.95
2022-08-21T11:05:02.876Z,30.90
2022-08-21T11:10:25.527Z,31.28
2022-08-21T11:16:11.254Z,33.13
2022-08-21T11:21:27.792Z,31.62
2022-08-21T11:27:02.229Z,32.00
2022-08-21T11:32:19.769Z,31.02
2022-08-21T11:37:38.972Z,27.59
2022-08-21T11:43:01.676Z,25.76
2022-08-21T11:48:13.248Z,25.24
2022-08-21T11:53:22.593Z,25.95
2022-08-21T11:58:37.240Z,26.19
2022-08-21T12:03:53.801Z,30.29
2022-08-21T12:09:04.872Z,27.84
2022-08-21T12:14:07.855Z,28.20
2022-08-21T12:19:33.803Z,25.87
2022-08-21T12:24:45.341Z,25.84
2022-08-21T12:29:51.006Z,26.34
2022-08-21T12:35:08.186Z,25.45
2022-08-21T12:40:38.157Z,28.38
2022-08-21T12:45:45.119Z,29.35
2022-08-21T12:51:01.647Z,25.67
2022-08-21T12:56:10.110Z,25.56
2022-08-21T13:01:39.307Z,28.41
2022-08-21T13:06:52.344Z,32.45
2022-08-21T13:11:55.801Z,39.14
2022-08-21T13:17:00.672Z,37.56
2022-08-21T13:22:14.963Z,34.09
2022-08-21T13:27:31.734Z,37.35
2022-08-21T13:32:38.878Z,39.92
2022-08-21T13:37:44.167Z,40.93
2022-08-21T13:42:49.398Z,39.44
2022-08-21T13:47:53.936Z,36.21
2022-08-21T13:53:03.107Z,30.05
2022-08-21T13:58:07.606Z,28.02
2022-08-21T14:03:15.652Z,29.95
2022-08-21T14:08:35.572Z,28.85
2022-08-21T14:13:45.349Z,27.71
2022-08-21T14:19:10.999Z,30.53
2022-08-21T14:24:29.104Z,32.33
2022-08-21T14:29:37.104Z,31.24
2022-08-21T14:34:39.762Z,32.99
2022-08-21T14:39:45.233Z,35.23
2022-08-21T14:44:48.511Z,30.70
2022-08-21T14:49:51.998Z,34.73
2022-08-21T14:54:54.434Z,36.92
2022-08-21T15:00:01.198Z,36.21
2022-08-21T15:05:05.761Z,32.15
2022-08-21T15:10:09.922Z,30.33
2022-08-21T15:15:12.713Z,36.27
2022-08-21T15:20:20.171Z,33.92
2022-08-21T15:25:22.750Z,32.29
2022-08-21T15:30:25.476Z,36.01
2022-08-21T15:35:28.057Z,32.05
2022-08-21T15:40:31.257Z,31.49
2022-08-21T15:45:34.776Z,33.22
2022-08-21T15:50:37.823Z,38.73
2022-08-21T15:55:41.024Z,39.43
2022-08-21T16:00:48.311Z,33.29
2022-08-21T16:05:53.468Z,42.39
2022-08-21T16:10:56.540Z,42.97
2022-08-21T16:15:59.279Z,40.86
2022-08-21T16:21:02.243Z,34.83
2022-08-21T16:26:06.142Z,34.22
2022-08-21T16:31:11.253Z,35.67
2022-08-21T16:36:18.338Z,42.71
2022-08-21T16:41:23.373Z,42.01
2022-08-21T16:46:36.690Z,44.05
2022-08-21T16:51:39.380Z,38.51
2022-08-21T16:56:46.989Z,42.44
2022-08-21T17:01:50.476Z,38.34
2022-08-21T17:06:53.448Z,35.05
2022-08-21T17:11:56.001Z,44.60
2022-08-21T17:16:59.866Z,46.49
2022-08-21T17:22:02.815Z,47.07
2022-08-21T17:27:07.475Z,46.58
2022-08-21T17:32:12.692Z,47.22
2022-08-21T17:37:15.594Z,47.67
2022-08-21T17:42:18.667Z,47.64
2022-08-21T17:47:21.232Z,47.12
2022-08-21T17:52:24.546Z,47.92
2022-08-21T17:57:29.225Z,48.31
2022-08-21T18:02:32.133Z,47.83
2022-08-21T18:07:35.059Z,47.12
2022-08-21T18:12:43.051Z,45.85
2022-08-21T18:17:49.489Z,47.46
2022-08-21T18:22:52.405Z,44.92
2022-08-21T18:27:55.890Z,48.10
2022-08-21T18:32:58.446Z,46.34
2022-08-21T18:38:01.027Z,43.86
2022-08-21T18:43:06.571Z,48.33
2022-08-21T18:48:12.846Z,49.14
2022-08-21T18:53:27.617Z,50.37
2022-08-21T18:58:32.055Z,44.47
2022-08-21T19:03:34.474Z,48.75
2022-08-21T19:08:36.947Z,48.65
2022-08-21T19:13:40.840Z,49.36
2022-08-21T19:18:43.502Z,49.23
2022-08-21T19:23:52.511Z,41.75
2022-08-21T19:29:02.168Z,48.83
2022-08-21T19:34:15.683Z,50.47
2022-08-21T19:39:18.782Z,43.07
2022-08-21T19:44:24.870Z,43.28
2022-08-21T19:49:34.763Z,46.48
2022-08-21T19:54:37.830Z,43.49
2022-08-21T19:59:42.263Z,43.74
2022-08-21T20:04:54.091Z,46.89
2022-08-21T20:09:58.123Z,47.35
2022-08-21T20:15:01.847Z,43.62
2022-08-21T20:20:05.668Z,47.95
2022-08-21T20:25:08.897Z,51.64
2022-08-21T20:30:13.303Z,45.10
2022-08-21T20:35:16.326Z,49.75
2022-08-21T20:40:20.998Z,51.11
2022-08-21T20:45:28.303Z,51.40
2022-08-21T20:50:37.096Z,51.04
2022-08-21T20:55:45.228Z,48.12
2022-08-21T21:00:51.914Z,52.01
2022-08-21T21:06:07.833Z,47.25
2022-08-21T21:11:33.623Z,50.12
2022-08-21T21:16:42.172Z,44.76
2022-08-21T21:22:20.477Z,47.44
2022-08-21T21:27:49.255Z,48.47
2022-08-21T21:32:52.756Z,44.45
2022-08-21T21:38:21.116Z,43.43
2022-08-21T21:43:37.221Z,47.70
2022-08-21T21:48:51.779Z,51.78
2022-08-21T21:54:08.526Z,48.89
2022-08-21T21:59:48.111Z,49.77
2022-08-21T22:05:07.386Z,49.36
2022-08-21T22:10:30.788Z,46.10
2022-08-21T22:15:35.124Z,46.74
2022-08-21T22:21:12.320Z,49.36
2022-08-21T22:26:20.761Z,46.52
2022-08-21T22:31:34.951Z,48.37
2022-08-21T22:36:44.336Z,47.20
2022-08-21T22:41:52.644Z,48.35
2022-08-21T22:46:59.289Z,49.65
2022-08-21T22:52:29.164Z,43.88
2022-08-21T22:57:34.803Z,48.82
2022-08-21T23:02:49.212Z,49.21
2022-08-21T23:07:55.507Z,49.22
2022-08-21T23:13:12.370Z,47.37
2022-08-21T23:18:31.495Z,47.01
2022-08-21T23:23:48.554Z,49.17
2022-08-21T23:29:12.777Z,48.88
2022-08-21T23:34:41.294Z,45.27
2022-08-21T23:40:13.173Z,49.13
2022-08-21T23:51:13.328Z,47.72
2022-08-21T23:56:46.615Z,47.94
